sensor_id;sensor_type;location;lat;lon;timestamp;P1;durP1;ratioP1;P2;durP2;ratioP2
46222;SDS011;31943;51.410;7.564;2022-12-24T00:00:14;15.55;;;3.03;;
46222;SDS011;31943;51.410;7.564;2022-12-24T00:02:40;13.68;;;3.17;;
46222;SDS011;31943;51.410;7.564;2022-12-24T00:05:06;15.10;;;3.60;;
46222;SDS011;31943;51.410;7.564;2022-12-24T00:07:32;13.00;;;3.15;;
46222;SDS011;31943;51.410;7.564;2022-12-24T00:09:57;17.08;;;3.00;;
46222;SDS011;31943;51.410;7.564;2022-12-24T00:12:23;18.20;;;3.55;;
46222;SDS011;31943;51.410;7.564;2022-12-24T00:14:53;22.20;;;3.95;;
46222;SDS011;31943;51.410;7.564;2022-12-24T00:17:18;19.38;;;3.92;;
46222;SDS011;31943;51.410;7.564;2022-12-24T00:19:44;14.88;;;4.00;;
46222;SDS011;31943;51.410;7.564;2022-12-24T00:22:09;16.17;;;3.85;;
46222;SDS011;31943;51.410;7.564;2022-12-24T00:24:35;17.60;;;4.13;;
46222;SDS011;31943;51.410;7.564;2022-12-24T00:27:01;15.25;;;4.05;;
46222;SDS011;31943;51.410;7.564;2022-12-24T00:29:28;18.95;;;3.55;;
46222;SDS011;31943;51.410;7.564;2022-12-24T00:31:57;19.10;;;3.78;;
46222;SDS011;31943;51.410;7.564;2022-12-24T00:34:24;18.58;;;3.35;;
46222;SDS011;31943;51.410;7.564;2022-12-24T00:36:50;18.05;;;3.42;;
46222;SDS011;31943;51.410;7.564;2022-12-24T00:39:17;21.20;;;4.43;;
46222;SDS011;31943;51.410;7.564;2022-12-24T00:41:44;19.83;;;4.25;;
46222;SDS011;31943;51.410;7.564;2022-12-24T00:44:09;21.00;;;3.70;;
46222;SDS011;31943;51.410;7.564;2022-12-24T00:46:35;15.48;;;3.65;;
46222;SDS011;31943;51.410;7.564;2022-12-24T00:49:04;20.92;;;4.68;;
46222;SDS011;31943;51.410;7.564;2022-12-24T00:51:31;17.02;;;3.67;;
46222;SDS011;31943;51.410;7.564;2022-12-24T00:53:57;16.75;;;4.10;;
46222;SDS011;31943;51.410;7.564;2022-12-24T00:56:23;23.05;;;4.35;;
46222;SDS011;31943;51.410;7.564;2022-12-24T00:58:50;19.95;;;3.97;;
46222;SDS011;31943;51.410;7.564;2022-12-24T01:01:18;22.10;;;4.38;;
46222;SDS011;31943;51.410;7.564;2022-12-24T01:03:45;17.55;;;4.47;;
46222;SDS011;31943;51.410;7.564;2022-12-24T01:06:13;22.15;;;4.55;;
46222;SDS011;31943;51.410;7.564;2022-12-24T01:08:40;19.98;;;3.85;;
46222;SDS011;31943;51.410;7.564;2022-12-24T01:11:07;18.08;;;3.72;;
46222;SDS011;31943;51.410;7.564;2022-12-24T01:13:34;18.38;;;3.72;;
46222;SDS011;31943;51.410;7.564;2022-12-24T01:16:00;18.33;;;3.85;;
46222;SDS011;31943;51.410;7.564;2022-12-24T01:18:26;21.17;;;3.45;;
46222;SDS011;31943;51.410;7.564;2022-12-24T01:20:56;19.20;;;3.47;;
46222;SDS011;31943;51.410;7.564;2022-12-24T01:23:25;20.98;;;4.72;;
46222;SDS011;31943;51.410;7.564;2022-12-24T01:25:51;18.95;;;3.95;;
46222;SDS011;31943;51.410;7.564;2022-12-24T01:28:17;20.83;;;4.47;;
46222;SDS011;31943;51.410;7.564;2022-12-24T01:30:42;17.67;;;4.20;;
46222;SDS011;31943;51.410;7.564;2022-12-24T01:33:08;16.38;;;3.83;;
46222;SDS011;31943;51.410;7.564;2022-12-24T01:35:33;18.27;;;4.10;;
46222;SDS011;31943;51.410;7.564;2022-12-24T01:37:59;21.17;;;4.07;;
46222;SDS011;31943;51.410;7.564;2022-12-24T01:40:28;22.80;;;4.53;;
46222;SDS011;31943;51.410;7.564;2022-12-24T01:42:54;25.05;;;4.78;;
46222;SDS011;31943;51.410;7.564;2022-12-24T01:51:12;22.95;;;4.72;;
46222;SDS011;31943;51.410;7.564;2022-12-24T01:53:41;16.80;;;4.20;;
46222;SDS011;31943;51.410;7.564;2022-12-24T01:56:12;17.15;;;4.07;;
46222;SDS011;31943;51.410;7.564;2022-12-24T01:58:39;18.60;;;3.60;;
46222;SDS011;31943;51.410;7.564;2022-12-24T02:01:07;21.55;;;3.95;;
46222;SDS011;31943;51.410;7.564;2022-12-24T02:03:33;19.40;;;3.78;;
46222;SDS011;31943;51.410;7.564;2022-12-24T02:05:59;22.90;;;4.50;;
46222;SDS011;31943;51.410;7.564;2022-12-24T02:08:25;22.40;;;4.55;;
46222;SDS011;31943;51.410;7.564;2022-12-24T02:10:51;26.75;;;4.30;;
46222;SDS011;31943;51.410;7.564;2022-12-24T02:13:19;21.48;;;4.88;;
46222;SDS011;31943;51.410;7.564;2022-12-24T02:15:52;23.02;;;4.60;;
46222;SDS011;31943;51.410;7.564;2022-12-24T02:18:29;21.83;;;4.70;;
46222;SDS011;31943;51.410;7.564;2022-12-24T02:21:18;14.32;;;3.67;;
46222;SDS011;31943;51.410;7.564;2022-12-24T02:27:07;24.48;;;4.55;;
46222;SDS011;31943;51.410;7.564;2022-12-24T02:32:33;15.90;;;3.53;;
46222;SDS011;31943;51.410;7.564;2022-12-24T02:35:07;23.98;;;4.60;;
46222;SDS011;31943;51.410;7.564;2022-12-24T02:37:36;21.15;;;4.50;;
46222;SDS011;31943;51.410;7.564;2022-12-24T02:40:06;25.08;;;4.63;;
46222;SDS011;31943;51.410;7.564;2022-12-24T02:42:36;18.38;;;4.43;;
46222;SDS011;31943;51.410;7.564;2022-12-24T02:47:49;18.77;;;4.03;;
46222;SDS011;31943;51.410;7.564;2022-12-24T02:50:17;22.23;;;4.07;;
46222;SDS011;31943;51.410;7.564;2022-12-24T02:52:45;17.63;;;3.85;;
46222;SDS011;31943;51.410;7.564;2022-12-24T02:55:13;21.75;;;4.65;;
46222;SDS011;31943;51.410;7.564;2022-12-24T02:57:43;19.08;;;4.50;;
46222;SDS011;31943;51.410;7.564;2022-12-24T03:00:45;17.92;;;4.60;;
46222;SDS011;31943;51.410;7.564;2022-12-24T03:05:56;18.92;;;4.50;;
46222;SDS011;31943;51.410;7.564;2022-12-24T03:08:30;20.98;;;4.78;;
46222;SDS011;31943;51.410;7.564;2022-12-24T03:11:07;19.73;;;3.92;;
46222;SDS011;31943;51.410;7.564;2022-12-24T03:13:35;21.25;;;4.47;;
46222;SDS011;31943;51.410;7.564;2022-12-24T03:16:03;20.52;;;4.72;;
46222;SDS011;31943;51.410;7.564;2022-12-24T03:18:31;23.38;;;4.20;;
46222;SDS011;31943;51.410;7.564;2022-12-24T03:20:59;19.23;;;4.15;;
46222;SDS011;31943;51.410;7.564;2022-12-24T03:23:29;25.15;;;4.63;;
46222;SDS011;31943;51.410;7.564;2022-12-24T03:25:55;22.25;;;4.47;;
46222;SDS011;31943;51.410;7.564;2022-12-24T03:28:24;22.50;;;4.63;;
46222;SDS011;31943;51.410;7.564;2022-12-24T03:30:52;18.70;;;4.55;;
46222;SDS011;31943;51.410;7.564;2022-12-24T03:33:22;19.70;;;4.22;;
46222;SDS011;31943;51.410;7.564;2022-12-24T03:35:52;26.08;;;5.22;;
46222;SDS011;31943;51.410;7.564;2022-12-24T03:38:19;17.95;;;3.90;;
46222;SDS011;31943;51.410;7.564;2022-12-24T03:40:45;24.08;;;5.30;;
46222;SDS011;31943;51.410;7.564;2022-12-24T03:43:11;29.38;;;5.43;;
46222;SDS011;31943;51.410;7.564;2022-12-24T03:45:37;20.75;;;4.80;;
46222;SDS011;31943;51.410;7.564;2022-12-24T03:48:02;21.70;;;4.68;;
46222;SDS011;31943;51.410;7.564;2022-12-24T03:50:29;25.30;;;4.45;;
46222;SDS011;31943;51.410;7.564;2022-12-24T03:52:56;25.95;;;4.57;;
46222;SDS011;31943;51.410;7.564;2022-12-24T03:55:25;23.67;;;5.00;;
46222;SDS011;31943;51.410;7.564;2022-12-24T03:57:52;20.35;;;4.30;;
46222;SDS011;31943;51.410;7.564;2022-12-24T04:00:19;18.23;;;4.20;;
46222;SDS011;31943;51.410;7.564;2022-12-24T04:02:48;19.23;;;3.67;;
46222;SDS011;31943;51.410;7.564;2022-12-24T04:05:16;19.30;;;4.07;;
46222;SDS011;31943;51.410;7.564;2022-12-24T04:07:45;23.88;;;5.25;;
46222;SDS011;31943;51.410;7.564;2022-12-24T04:10:11;24.00;;;4.53;;
46222;SDS011;31943;51.410;7.564;2022-12-24T04:12:37;21.77;;;4.50;;
46222;SDS011;31943;51.410;7.564;2022-12-24T04:15:04;19.17;;;3.85;;
46222;SDS011;31943;51.410;7.564;2022-12-24T04:17:31;28.67;;;5.40;;
46222;SDS011;31943;51.410;7.564;2022-12-24T04:19:57;22.30;;;4.20;;
46222;SDS011;31943;51.410;7.564;2022-12-24T04:22:27;24.88;;;4.40;;
46222;SDS011;31943;51.410;7.564;2022-12-24T04:25:02;22.63;;;4.45;;
46222;SDS011;31943;51.410;7.564;2022-12-24T04:27:27;25.20;;;4.75;;
46222;SDS011;31943;51.410;7.564;2022-12-24T04:29:53;26.13;;;4.28;;
46222;SDS011;31943;51.410;7.564;2022-12-24T04:32:18;23.83;;;3.50;;
46222;SDS011;31943;51.410;7.564;2022-12-24T04:34:44;21.70;;;4.03;;
46222;SDS011;31943;51.410;7.564;2022-12-24T04:37:09;22.58;;;4.95;;
46222;SDS011;31943;51.410;7.564;2022-12-24T04:39:35;23.52;;;4.32;;
46222;SDS011;31943;51.410;7.564;2022-12-24T04:42:01;24.00;;;4.25;;
46222;SDS011;31943;51.410;7.564;2022-12-24T04:44:27;22.73;;;3.92;;
46222;SDS011;31943;51.410;7.564;2022-12-24T04:46:53;14.18;;;4.22;;
46222;SDS011;31943;51.410;7.564;2022-12-24T04:49:18;29.08;;;4.43;;
46222;SDS011;31943;51.410;7.564;2022-12-24T04:51:44;23.17;;;4.60;;
46222;SDS011;31943;51.410;7.564;2022-12-24T04:54:09;19.48;;;3.80;;
46222;SDS011;31943;51.410;7.564;2022-12-24T04:56:35;22.55;;;4.57;;
46222;SDS011;31943;51.410;7.564;2022-12-24T04:59:02;17.27;;;3.78;;
46222;SDS011;31943;51.410;7.564;2022-12-24T05:01:36;14.10;;;2.80;;
46222;SDS011;31943;51.410;7.564;2022-12-24T05:04:02;15.90;;;3.30;;
46222;SDS011;31943;51.410;7.564;2022-12-24T05:06:29;17.63;;;3.55;;
46222;SDS011;31943;51.410;7.564;2022-12-24T05:08:58;15.10;;;3.60;;
46222;SDS011;31943;51.410;7.564;2022-12-24T05:11:24;18.52;;;3.80;;
46222;SDS011;31943;51.410;7.564;2022-12-24T05:13:50;15.88;;;3.55;;
46222;SDS011;31943;51.410;7.564;2022-12-24T05:16:18;16.83;;;3.33;;
46222;SDS011;31943;51.410;7.564;2022-12-24T05:18:45;12.93;;;3.40;;
46222;SDS011;31943;51.410;7.564;2022-12-24T05:21:12;15.80;;;3.58;;
46222;SDS011;31943;51.410;7.564;2022-12-24T05:23:40;16.27;;;4.10;;
46222;SDS011;31943;51.410;7.564;2022-12-24T05:28:38;11.40;;;3.35;;
46222;SDS011;31943;51.410;7.564;2022-12-24T05:31:04;17.38;;;3.72;;
46222;SDS011;31943;51.410;7.564;2022-12-24T05:33:31;15.38;;;3.53;;
46222;SDS011;31943;51.410;7.564;2022-12-24T05:35:56;16.85;;;3.53;;
46222;SDS011;31943;51.410;7.564;2022-12-24T05:38:22;14.50;;;3.72;;
46222;SDS011;31943;51.410;7.564;2022-12-24T05:40:49;15.05;;;2.92;;
46222;SDS011;31943;51.410;7.564;2022-12-24T05:43:16;16.88;;;3.53;;
46222;SDS011;31943;51.410;7.564;2022-12-24T05:45:42;14.52;;;3.63;;
46222;SDS011;31943;51.410;7.564;2022-12-24T05:48:09;9.43;;;2.58;;
46222;SDS011;31943;51.410;7.564;2022-12-24T05:50:41;13.68;;;3.35;;
46222;SDS011;31943;51.410;7.564;2022-12-24T05:53:06;11.35;;;3.05;;
46222;SDS011;31943;51.410;7.564;2022-12-24T05:55:32;15.70;;;2.90;;
46222;SDS011;31943;51.410;7.564;2022-12-24T05:57:58;10.35;;;2.85;;
46222;SDS011;31943;51.410;7.564;2022-12-24T06:00:24;10.90;;;2.60;;
46222;SDS011;31943;51.410;7.564;2022-12-24T06:02:49;13.70;;;3.00;;
46222;SDS011;31943;51.410;7.564;2022-12-24T06:05:16;13.73;;;2.78;;
46222;SDS011;31943;51.410;7.564;2022-12-24T06:07:43;15.25;;;2.97;;
46222;SDS011;31943;51.410;7.564;2022-12-24T06:10:11;15.32;;;3.50;;
46222;SDS011;31943;51.410;7.564;2022-12-24T06:12:37;16.52;;;3.50;;
46222;SDS011;31943;51.410;7.564;2022-12-24T06:15:03;16.48;;;3.40;;
46222;SDS011;31943;51.410;7.564;2022-12-24T06:17:30;15.38;;;3.92;;
46222;SDS011;31943;51.410;7.564;2022-12-24T06:19:56;16.02;;;4.05;;
46222;SDS011;31943;51.410;7.564;2022-12-24T06:22:24;17.23;;;3.33;;
46222;SDS011;31943;51.410;7.564;2022-12-24T06:24:55;11.75;;;3.50;;
46222;SDS011;31943;51.410;7.564;2022-12-24T06:27:21;15.63;;;3.40;;
46222;SDS011;31943;51.410;7.564;2022-12-24T06:29:48;14.65;;;3.28;;
46222;SDS011;31943;51.410;7.564;2022-12-24T06:32:14;18.48;;;3.63;;
46222;SDS011;31943;51.410;7.564;2022-12-24T06:34:42;13.10;;;3.30;;
46222;SDS011;31943;51.410;7.564;2022-12-24T06:37:07;17.77;;;3.58;;
46222;SDS011;31943;51.410;7.564;2022-12-24T06:39:35;16.27;;;4.07;;
46222;SDS011;31943;51.410;7.564;2022-12-24T06:42:02;17.67;;;3.53;;
46222;SDS011;31943;51.410;7.564;2022-12-24T06:44:28;19.63;;;4.03;;
46222;SDS011;31943;51.410;7.564;2022-12-24T06:46:54;15.55;;;3.72;;
46222;SDS011;31943;51.410;7.564;2022-12-24T06:49:21;14.95;;;3.45;;
46222;SDS011;31943;51.410;7.564;2022-12-24T06:51:47;16.10;;;3.95;;
46222;SDS011;31943;51.410;7.564;2022-12-24T06:54:12;15.23;;;3.22;;
46222;SDS011;31943;51.410;7.564;2022-12-24T06:56:41;14.10;;;3.40;;
46222;SDS011;31943;51.410;7.564;2022-12-24T06:59:15;17.38;;;4.10;;
46222;SDS011;31943;51.410;7.564;2022-12-24T07:01:41;17.73;;;4.13;;
46222;SDS011;31943;51.410;7.564;2022-12-24T07:04:07;21.33;;;3.72;;
46222;SDS011;31943;51.410;7.564;2022-12-24T07:06:38;21.77;;;3.85;;
46222;SDS011;31943;51.410;7.564;2022-12-24T07:09:04;16.10;;;3.45;;
46222;SDS011;31943;51.410;7.564;2022-12-24T07:11:30;11.98;;;3.33;;
46222;SDS011;31943;51.410;7.564;2022-12-24T07:13:59;15.00;;;3.75;;
46222;SDS011;31943;51.410;7.564;2022-12-24T07:16:26;15.85;;;3.83;;
46222;SDS011;31943;51.410;7.564;2022-12-24T07:18:52;17.50;;;4.10;;
46222;SDS011;31943;51.410;7.564;2022-12-24T07:21:17;21.55;;;4.70;;
46222;SDS011;31943;51.410;7.564;2022-12-24T07:23:44;20.23;;;4.95;;
46222;SDS011;31943;51.410;7.564;2022-12-24T07:26:09;18.52;;;3.90;;
46222;SDS011;31943;51.410;7.564;2022-12-24T07:28:35;16.08;;;3.88;;
46222;SDS011;31943;51.410;7.564;2022-12-24T07:31:05;18.05;;;3.47;;
46222;SDS011;31943;51.410;7.564;2022-12-24T07:33:32;21.20;;;4.18;;
46222;SDS011;31943;51.410;7.564;2022-12-24T07:35:58;22.75;;;3.67;;
46222;SDS011;31943;51.410;7.564;2022-12-24T07:38:25;16.45;;;3.92;;
46222;SDS011;31943;51.410;7.564;2022-12-24T07:40:50;16.35;;;3.92;;
46222;SDS011;31943;51.410;7.564;2022-12-24T07:43:16;17.30;;;3.85;;
46222;SDS011;31943;51.410;7.564;2022-12-24T07:45:41;20.52;;;4.05;;
46222;SDS011;31943;51.410;7.564;2022-12-24T07:48:07;21.33;;;4.00;;
46222;SDS011;31943;51.410;7.564;2022-12-24T07:50:34;21.90;;;4.03;;
46222;SDS011;31943;51.410;7.564;2022-12-24T07:52:59;16.50;;;3.95;;
46222;SDS011;31943;51.410;7.564;2022-12-24T07:55:25;17.83;;;3.72;;
46222;SDS011;31943;51.410;7.564;2022-12-24T07:57:51;25.40;;;4.70;;
46222;SDS011;31943;51.410;7.564;2022-12-24T08:00:18;15.55;;;3.95;;
46222;SDS011;31943;51.410;7.564;2022-12-24T08:02:44;16.75;;;4.25;;
46222;SDS011;31943;51.410;7.564;2022-12-24T08:05:09;23.98;;;4.30;;
46222;SDS011;31943;51.410;7.564;2022-12-24T08:07:37;24.40;;;4.10;;
46222;SDS011;31943;51.410;7.564;2022-12-24T08:10:06;23.35;;;4.13;;
46222;SDS011;31943;51.410;7.564;2022-12-24T08:12:32;22.15;;;3.88;;
46222;SDS011;31943;51.410;7.564;2022-12-24T08:14:57;20.23;;;4.47;;
46222;SDS011;31943;51.410;7.564;2022-12-24T08:17:23;19.88;;;4.38;;
46222;SDS011;31943;51.410;7.564;2022-12-24T08:19:49;21.52;;;4.45;;
46222;SDS011;31943;51.410;7.564;2022-12-24T08:22:15;22.65;;;4.70;;
46222;SDS011;31943;51.410;7.564;2022-12-24T08:24:43;16.98;;;4.57;;
46222;SDS011;31943;51.410;7.564;2022-12-24T08:27:09;18.35;;;4.13;;
46222;SDS011;31943;51.410;7.564;2022-12-24T08:29:37;17.50;;;4.22;;
46222;SDS011;31943;51.410;7.564;2022-12-24T08:32:04;26.05;;;5.00;;
46222;SDS011;31943;51.410;7.564;2022-12-24T08:34:30;23.15;;;3.88;;
46222;SDS011;31943;51.410;7.564;2022-12-24T08:36:55;17.95;;;4.55;;
46222;SDS011;31943;51.410;7.564;2022-12-24T08:39:21;20.00;;;3.92;;
46222;SDS011;31943;51.410;7.564;2022-12-24T08:41:48;19.10;;;4.18;;
46222;SDS011;31943;51.410;7.564;2022-12-24T08:44:14;21.63;;;4.53;;
46222;SDS011;31943;51.410;7.564;2022-12-24T08:46:41;25.10;;;4.68;;
46222;SDS011;31943;51.410;7.564;2022-12-24T08:49:07;22.65;;;4.20;;
46222;SDS011;31943;51.410;7.564;2022-12-24T08:51:32;19.13;;;4.35;;
46222;SDS011;31943;51.410;7.564;2022-12-24T08:54:01;21.40;;;4.57;;
46222;SDS011;31943;51.410;7.564;2022-12-24T08:56:27;20.38;;;4.78;;
46222;SDS011;31943;51.410;7.564;2022-12-24T08:58:54;15.40;;;3.85;;
46222;SDS011;31943;51.410;7.564;2022-12-24T09:01:19;25.50;;;4.90;;
46222;SDS011;31943;51.410;7.564;2022-12-24T09:03:45;20.67;;;4.35;;
46222;SDS011;31943;51.410;7.564;2022-12-24T09:06:12;26.73;;;4.60;;
46222;SDS011;31943;51.410;7.564;2022-12-24T09:08:38;17.77;;;3.75;;
46222;SDS011;31943;51.410;7.564;2022-12-24T09:11:05;25.17;;;4.47;;
46222;SDS011;31943;51.410;7.564;2022-12-24T09:13:33;23.42;;;4.47;;
46222;SDS011;31943;51.410;7.564;2022-12-24T09:16:03;22.52;;;4.65;;
46222;SDS011;31943;51.410;7.564;2022-12-24T09:18:29;22.98;;;4.40;;
46222;SDS011;31943;51.410;7.564;2022-12-24T09:21:00;20.98;;;4.70;;
46222;SDS011;31943;51.410;7.564;2022-12-24T09:23:26;17.58;;;3.65;;
46222;SDS011;31943;51.410;7.564;2022-12-24T09:25:52;29.35;;;4.85;;
46222;SDS011;31943;51.410;7.564;2022-12-24T09:28:23;21.58;;;4.93;;
46222;SDS011;31943;51.410;7.564;2022-12-24T09:30:59;24.23;;;4.00;;
46222;SDS011;31943;51.410;7.564;2022-12-24T09:36:09;25.40;;;4.75;;
46222;SDS011;31943;51.410;7.564;2022-12-24T09:38:35;19.90;;;4.15;;
46222;SDS011;31943;51.410;7.564;2022-12-24T09:41:09;22.08;;;4.45;;
46222;SDS011;31943;51.410;7.564;2022-12-24T09:43:43;22.33;;;4.97;;
46222;SDS011;31943;51.410;7.564;2022-12-24T09:46:12;20.90;;;5.28;;
46222;SDS011;31943;51.410;7.564;2022-12-24T09:48:46;23.95;;;4.95;;
46222;SDS011;31943;51.410;7.564;2022-12-24T09:51:15;21.88;;;4.85;;
46222;SDS011;31943;51.410;7.564;2022-12-24T09:53:49;23.52;;;5.18;;
46222;SDS011;31943;51.410;7.564;2022-12-24T09:56:18;15.90;;;4.00;;
46222;SDS011;31943;51.410;7.564;2022-12-24T09:58:59;19.23;;;5.10;;
46222;SDS011;31943;51.410;7.564;2022-12-24T10:01:28;26.17;;;4.97;;
46222;SDS011;31943;51.410;7.564;2022-12-24T10:03:59;43.90;;;6.40;;
46222;SDS011;31943;51.410;7.564;2022-12-24T10:06:28;18.77;;;4.43;;
46222;SDS011;31943;51.410;7.564;2022-12-24T10:09:05;19.35;;;4.55;;
46222;SDS011;31943;51.410;7.564;2022-12-24T10:11:49;20.95;;;4.45;;
46222;SDS011;31943;51.410;7.564;2022-12-24T10:14:21;21.88;;;4.95;;
46222;SDS011;31943;51.410;7.564;2022-12-24T10:16:56;16.83;;;4.30;;
46222;SDS011;31943;51.410;7.564;2022-12-24T10:19:36;22.52;;;4.20;;
46222;SDS011;31943;51.410;7.564;2022-12-24T10:22:12;18.52;;;4.30;;
46222;SDS011;31943;51.410;7.564;2022-12-24T10:24:48;22.10;;;5.13;;
46222;SDS011;31943;51.410;7.564;2022-12-24T10:27:22;24.33;;;5.43;;
46222;SDS011;31943;51.410;7.564;2022-12-24T10:29:53;18.83;;;4.38;;
46222;SDS011;31943;51.410;7.564;2022-12-24T10:34:52;20.83;;;4.10;;
46222;SDS011;31943;51.410;7.564;2022-12-24T10:37:24;21.35;;;4.88;;
46222;SDS011;31943;51.410;7.564;2022-12-24T10:39:51;18.65;;;4.70;;
46222;SDS011;31943;51.410;7.564;2022-12-24T10:42:17;21.17;;;5.75;;
46222;SDS011;31943;51.410;7.564;2022-12-24T10:44:46;27.30;;;5.78;;
46222;SDS011;31943;51.410;7.564;2022-12-24T10:47:15;20.00;;;5.45;;
46222;SDS011;31943;51.410;7.564;2022-12-24T10:49:43;22.73;;;4.80;;
46222;SDS011;31943;51.410;7.564;2022-12-24T10:52:14;21.80;;;5.60;;
46222;SDS011;31943;51.410;7.564;2022-12-24T10:55:05;16.38;;;3.80;;
46222;SDS011;31943;51.410;7.564;2022-12-24T10:57:33;23.88;;;4.60;;
46222;SDS011;31943;51.410;7.564;2022-12-24T10:59:59;21.15;;;4.40;;
46222;SDS011;31943;51.410;7.564;2022-12-24T11:02:26;27.88;;;4.60;;
46222;SDS011;31943;51.410;7.564;2022-12-24T11:04:54;22.55;;;4.82;;
46222;SDS011;31943;51.410;7.564;2022-12-24T11:07:22;20.70;;;5.20;;
46222;SDS011;31943;51.410;7.564;2022-12-24T11:09:53;21.00;;;4.78;;
46222;SDS011;31943;51.410;7.564;2022-12-24T11:12:21;20.92;;;4.55;;
46222;SDS011;31943;51.410;7.564;2022-12-24T11:14:49;23.45;;;4.47;;
46222;SDS011;31943;51.410;7.564;2022-12-24T11:17:24;15.95;;;4.70;;
46222;SDS011;31943;51.410;7.564;2022-12-24T11:19:50;22.08;;;5.03;;
46222;SDS011;31943;51.410;7.564;2022-12-24T11:22:16;24.00;;;4.85;;
46222;SDS011;31943;51.410;7.564;2022-12-24T11:24:56;24.65;;;4.90;;
46222;SDS011;31943;51.410;7.564;2022-12-24T11:27:31;18.73;;;3.97;;
46222;SDS011;31943;51.410;7.564;2022-12-24T11:30:12;22.10;;;5.13;;
46222;SDS011;31943;51.410;7.564;2022-12-24T11:32:49;19.65;;;4.85;;
46222;SDS011;31943;51.410;7.564;2022-12-24T11:35:38;15.88;;;4.13;;
46222;SDS011;31943;51.410;7.564;2022-12-24T11:38:08;21.10;;;4.70;;
46222;SDS011;31943;51.410;7.564;2022-12-24T11:40:37;22.75;;;5.28;;
46222;SDS011;31943;51.410;7.564;2022-12-24T11:43:10;20.48;;;4.97;;
46222;SDS011;31943;51.410;7.564;2022-12-24T11:45:39;22.50;;;5.28;;
46222;SDS011;31943;51.410;7.564;2022-12-24T11:48:22;24.15;;;5.25;;
46222;SDS011;31943;51.410;7.564;2022-12-24T11:50:50;22.15;;;5.20;;
46222;SDS011;31943;51.410;7.564;2022-12-24T11:53:21;25.25;;;6.03;;
46222;SDS011;31943;51.410;7.564;2022-12-24T11:55:55;25.88;;;5.40;;
46222;SDS011;31943;51.410;7.564;2022-12-24T11:58:26;20.05;;;5.50;;
46222;SDS011;31943;51.410;7.564;2022-12-24T12:01:02;22.05;;;4.90;;
46222;SDS011;31943;51.410;7.564;2022-12-24T12:03:39;19.98;;;4.60;;
46222;SDS011;31943;51.410;7.564;2022-12-24T12:06:10;25.35;;;5.80;;
46222;SDS011;31943;51.410;7.564;2022-12-24T12:08:54;28.63;;;6.80;;
46222;SDS011;31943;51.410;7.564;2022-12-24T12:11:24;25.17;;;5.10;;
46222;SDS011;31943;51.410;7.564;2022-12-24T12:13:52;20.13;;;4.82;;
46222;SDS011;31943;51.410;7.564;2022-12-24T12:16:22;21.83;;;4.75;;
46222;SDS011;31943;51.410;7.564;2022-12-24T12:21:22;20.40;;;4.85;;
46222;SDS011;31943;51.410;7.564;2022-12-24T12:23:51;17.67;;;5.00;;
46222;SDS011;31943;51.410;7.564;2022-12-24T12:26:22;21.50;;;4.93;;
46222;SDS011;31943;51.410;7.564;2022-12-24T12:28:53;23.90;;;5.68;;
46222;SDS011;31943;51.410;7.564;2022-12-24T12:31:22;25.60;;;6.25;;
46222;SDS011;31943;51.410;7.564;2022-12-24T12:33:53;24.90;;;5.50;;
46222;SDS011;31943;51.410;7.564;2022-12-24T12:36:22;15.30;;;4.32;;
46222;SDS011;31943;51.410;7.564;2022-12-24T12:38:53;17.00;;;5.13;;
46222;SDS011;31943;51.410;7.564;2022-12-24T12:41:22;21.50;;;5.15;;
46222;SDS011;31943;51.410;7.564;2022-12-24T12:44:09;19.90;;;4.45;;
46222;SDS011;31943;51.410;7.564;2022-12-24T12:47:16;22.55;;;4.60;;
46222;SDS011;31943;51.410;7.564;2022-12-24T12:50:07;17.73;;;4.78;;
46222;SDS011;31943;51.410;7.564;2022-12-24T12:52:43;19.50;;;4.40;;
46222;SDS011;31943;51.410;7.564;2022-12-24T12:55:22;15.80;;;4.00;;
46222;SDS011;31943;51.410;7.564;2022-12-24T12:58:00;22.80;;;4.05;;
46222;SDS011;31943;51.410;7.564;2022-12-24T13:00:30;22.85;;;4.72;;
46222;SDS011;31943;51.410;7.564;2022-12-24T13:03:10;19.07;;;4.53;;
46222;SDS011;31943;51.410;7.564;2022-12-24T13:06:01;18.65;;;3.75;;
46222;SDS011;31943;51.410;7.564;2022-12-24T13:08:55;24.70;;;4.25;;
46222;SDS011;31943;51.410;7.564;2022-12-24T13:17:31;18.85;;;4.93;;
46222;SDS011;31943;51.410;7.564;2022-12-24T13:20:15;18.00;;;4.07;;
46222;SDS011;31943;51.410;7.564;2022-12-24T13:22:49;16.42;;;4.03;;
46222;SDS011;31943;51.410;7.564;2022-12-24T13:25:21;20.10;;;4.45;;
46222;SDS011;31943;51.410;7.564;2022-12-24T13:27:51;20.60;;;4.03;;
46222;SDS011;31943;51.410;7.564;2022-12-24T13:33:06;25.23;;;5.00;;
46222;SDS011;31943;51.410;7.564;2022-12-24T13:35:35;17.63;;;3.70;;
46222;SDS011;31943;51.410;7.564;2022-12-24T13:44:21;20.77;;;4.82;;
46222;SDS011;31943;51.410;7.564;2022-12-24T13:46:54;23.70;;;5.05;;
46222;SDS011;31943;51.410;7.564;2022-12-24T13:49:27;17.00;;;3.80;;
46222;SDS011;31943;51.410;7.564;2022-12-24T13:52:13;18.25;;;4.32;;
46222;SDS011;31943;51.410;7.564;2022-12-24T13:54:42;15.73;;;3.70;;
46222;SDS011;31943;51.410;7.564;2022-12-24T13:57:22;19.95;;;4.47;;
46222;SDS011;31943;51.410;7.564;2022-12-24T13:59:55;18.10;;;4.63;;
46222;SDS011;31943;51.410;7.564;2022-12-24T14:02:25;21.80;;;4.43;;
46222;SDS011;31943;51.410;7.564;2022-12-24T14:04:57;17.45;;;4.63;;
46222;SDS011;31943;51.410;7.564;2022-12-24T14:07:27;21.35;;;4.10;;
46222;SDS011;31943;51.410;7.564;2022-12-24T14:09:53;19.60;;;4.75;;
46222;SDS011;31943;51.410;7.564;2022-12-24T14:12:30;19.52;;;4.75;;
46222;SDS011;31943;51.410;7.564;2022-12-24T14:18:29;20.30;;;4.13;;
46222;SDS011;31943;51.410;7.564;2022-12-24T14:20:59;18.25;;;3.95;;
46222;SDS011;31943;51.410;7.564;2022-12-24T14:23:34;16.48;;;3.97;;
46222;SDS011;31943;51.410;7.564;2022-12-24T14:26:08;20.33;;;4.68;;
46222;SDS011;31943;51.410;7.564;2022-12-24T14:28:39;21.80;;;4.03;;
46222;SDS011;31943;51.410;7.564;2022-12-24T14:31:10;21.27;;;4.57;;
46222;SDS011;31943;51.410;7.564;2022-12-24T14:33:39;20.33;;;4.47;;
46222;SDS011;31943;51.410;7.564;2022-12-24T14:36:06;21.17;;;5.20;;
46222;SDS011;31943;51.410;7.564;2022-12-24T14:38:33;22.67;;;4.68;;
46222;SDS011;31943;51.410;7.564;2022-12-24T14:41:00;21.58;;;4.03;;
46222;SDS011;31943;51.410;7.564;2022-12-24T14:43:41;20.17;;;4.30;;
46222;SDS011;31943;51.410;7.564;2022-12-24T14:46:16;17.10;;;3.47;;
46222;SDS011;31943;51.410;7.564;2022-12-24T14:48:50;15.07;;;3.88;;
46222;SDS011;31943;51.410;7.564;2022-12-24T14:51:19;23.30;;;4.82;;
46222;SDS011;31943;51.410;7.564;2022-12-24T14:53:57;16.25;;;3.88;;
46222;SDS011;31943;51.410;7.564;2022-12-24T14:56:40;18.17;;;4.30;;
46222;SDS011;31943;51.410;7.564;2022-12-24T14:59:13;20.13;;;4.25;;
46222;SDS011;31943;51.410;7.564;2022-12-24T15:01:39;21.27;;;4.68;;
46222;SDS011;31943;51.410;7.564;2022-12-24T15:04:13;14.05;;;3.90;;
46222;SDS011;31943;51.410;7.564;2022-12-24T15:06:42;14.98;;;3.47;;
46222;SDS011;31943;51.410;7.564;2022-12-24T15:09:10;18.80;;;3.83;;
46222;SDS011;31943;51.410;7.564;2022-12-24T15:11:42;19.65;;;4.65;;
46222;SDS011;31943;51.410;7.564;2022-12-24T15:14:08;14.63;;;4.35;;
46222;SDS011;31943;51.410;7.564;2022-12-24T15:16:36;16.52;;;4.53;;
46222;SDS011;31943;51.410;7.564;2022-12-24T15:19:03;19.55;;;4.55;;
46222;SDS011;31943;51.410;7.564;2022-12-24T15:21:31;20.95;;;4.90;;
46222;SDS011;31943;51.410;7.564;2022-12-24T15:23:59;19.48;;;3.88;;
46222;SDS011;31943;51.410;7.564;2022-12-24T15:26:26;19.15;;;4.00;;
46222;SDS011;31943;51.410;7.564;2022-12-24T15:28:53;20.23;;;4.50;;
46222;SDS011;31943;51.410;7.564;2022-12-24T15:31:21;17.15;;;4.28;;